Portada
METAR-TAF:

METAR-TAF

Aeroports :

Banjarmasin, Indonèsia

latitud: 03-26-32S, longitud: 114-45-45E, altitud: 20 m

METAR: manca

Hora: 07:43 (00:43 UTC)

Pronòstic

L'informe es va fer fa 1 hora i 43 minuts, a les 23:00 UTC
Pronòstic vàlid del 21 a les 00 UTC al 21 a les 24 UTC
Vent 5 kt del Est/Nord-Est
Visibilitat 10 km o més
Núvols disperses a una alçada de 1800 ft
Temporalment
l' 21 a les 06 UTC al 21 a les 10 UTC
Visibilitat: 6000 m
pluja

TAF: WAOO 202300Z 2100/2124 06005KT 9999 SCT018 TEMPO 2106/2110 6000 RA

Observacions i pronòstics meteorològics de més de 4000 aeroports (METAR i TAF).

Les estacions disponibles són els punts grocs i vermells al mapa.

Posi el ratolí al punt desitjat per veure el nom de l'estació.

Feu clic per veure les observacions i els pronòstics meteorològics.

Per canviar el mapa: feu clic els botons verds amb una creu de color negre per apropar; al botó verd amb un guió per allunyar la imatge; o en les fletxes verdes per a mapes adjacents.


METAR-TAF: